createdAt,value
2022-12-09T00:00:38.693Z,97072.00
2022-12-09T00:03:14.167Z,97056.00
2022-12-09T00:05:50.671Z,97060.00
2022-12-09T00:08:25.961Z,97058.00
2022-12-09T00:11:01.689Z,97054.00
2022-12-09T00:13:37.439Z,97044.00
2022-12-09T00:16:15.017Z,97042.00
2022-12-09T00:18:51.363Z,97046.00
2022-12-09T00:21:30.515Z,97038.00
2022-12-09T00:24:07.650Z,97035.00
2022-12-09T00:26:42.565Z,97041.00
2022-12-09T00:29:17.513Z,97029.00
2022-12-09T00:31:52.726Z,97034.00
2022-12-09T00:34:27.691Z,97034.00
2022-12-09T00:37:02.538Z,97027.00
2022-12-09T00:39:37.444Z,97025.00
2022-12-09T00:42:12.599Z,97025.00
2022-12-09T00:44:47.742Z,97026.00
2022-12-09T00:47:22.791Z,97027.00
2022-12-09T00:49:57.751Z,97025.00
2022-12-09T00:52:32.685Z,97028.00
2022-12-09T00:55:08.151Z,97025.00
2022-12-09T00:57:43.203Z,97021.00
2022-12-09T01:00:18.807Z,97031.00
2022-12-09T01:02:53.930Z,97024.00
2022-12-09T01:05:29.463Z,97029.00
2022-12-09T01:08:04.919Z,97021.00
2022-12-09T01:10:42.090Z,97020.00
2022-12-09T01:13:17.509Z,97032.00
2022-12-09T01:15:52.540Z,97035.00
2022-12-09T01:18:27.434Z,97036.00
2022-12-09T01:21:03.083Z,97045.00
2022-12-09T01:23:38.257Z,97040.00
2022-12-09T01:26:13.359Z,97037.00
2022-12-09T01:28:52.649Z,97039.00
2022-12-09T01:31:28.042Z,97034.00
2022-12-09T01:34:03.928Z,97026.00
2022-12-09T01:36:39.023Z,97029.00
2022-12-09T01:39:14.297Z,97036.00
2022-12-09T01:41:51.257Z,97030.00
2022-12-09T01:44:27.909Z,97026.00
2022-12-09T01:47:03.137Z,97021.00
2022-12-09T01:49:46.515Z,97023.00
2022-12-09T01:52:23.184Z,97009.00
2022-12-09T01:54:58.672Z,97013.00
2022-12-09T01:57:34.485Z,97008.00
2022-12-09T02:00:10.817Z,97002.00
2022-12-09T02:02:54.806Z,97004.00
2022-12-09T02:05:31.172Z,97003.00
2022-12-09T02:08:16.563Z,97002.00
2022-12-09T02:11:45.344Z,96986.00
2022-12-09T02:14:48.766Z,96984.00
2022-12-09T02:17:40.100Z,96974.00
2022-12-09T02:20:26.545Z,96971.00
2022-12-09T02:23:30.242Z,96971.00
2022-12-09T02:26:32.955Z,96953.00
2022-12-09T02:29:41.269Z,96963.00
2022-12-09T02:32:59.288Z,96965.00
2022-12-09T02:35:50.609Z,96971.00
2022-12-09T02:38:30.405Z,96975.00
2022-12-09T02:41:27.849Z,96971.00
2022-12-09T02:44:14.808Z,96967.00
2022-12-09T02:46:51.151Z,96959.00
2022-12-09T02:49:28.391Z,96958.00
2022-12-09T02:52:05.608Z,96963.00
2022-12-09T02:54:43.585Z,96962.00
2022-12-09T02:57:24.246Z,96956.00
2022-12-09T02:59:59.341Z,96951.00
2022-12-09T03:02:43.888Z,96937.00
2022-12-09T03:05:30.665Z,96931.00
2022-12-09T03:08:41.654Z,96932.00
2022-12-09T03:11:19.674Z,96932.00
2022-12-09T03:14:19.067Z,96929.00
2022-12-09T03:17:02.556Z,96930.00
2022-12-09T03:20:07.491Z,96918.00
2022-12-09T03:22:45.160Z,96907.00
2022-12-09T03:25:31.471Z,96914.00
2022-12-09T03:28:14.181Z,96914.00
2022-12-09T03:30:49.836Z,96902.00
2022-12-09T03:33:26.601Z,96922.00
2022-12-09T03:36:05.651Z,96918.00
2022-12-09T03:38:42.688Z,96909.00
2022-12-09T03:41:30.946Z,96922.00
2022-12-09T03:44:16.920Z,96913.00
2022-12-09T03:46:52.261Z,96920.00
2022-12-09T03:49:27.231Z,96912.00
2022-12-09T03:52:19.591Z,96909.00
2022-12-09T03:55:13.954Z,96901.00
2022-12-09T03:57:53.908Z,96906.00
2022-12-09T04:00:30.555Z,96911.00
2022-12-09T04:03:07.352Z,96908.00
2022-12-09T04:05:43.261Z,96901.00
2022-12-09T04:08:18.335Z,96909.00
2022-12-09T04:10:53.477Z,96897.00
2022-12-09T04:13:28.363Z,96906.00
2022-12-09T04:16:03.661Z,96906.00
2022-12-09T04:18:38.632Z,96907.00
2022-12-09T04:21:14.057Z,96901.00
2022-12-09T04:23:48.953Z,96900.00
2022-12-09T04:26:24.343Z,96892.00
2022-12-09T04:28:59.689Z,96889.00
2022-12-09T04:31:35.089Z,96876.00
2022-12-09T04:34:10.433Z,96873.00
2022-12-09T04:36:45.687Z,96872.00
2022-12-09T04:39:20.641Z,96859.00
2022-12-09T04:41:56.466Z,96862.00
2022-12-09T04:44:31.627Z,96862.00
2022-12-09T04:47:07.051Z,96857.00
2022-12-09T04:49:42.100Z,96853.00
2022-12-09T04:52:18.576Z,96846.00
2022-12-09T04:54:53.603Z,96842.00
2022-12-09T04:57:29.664Z,96840.00
2022-12-09T05:00:07.575Z,96838.00
2022-12-09T05:02:42.989Z,96831.00
2022-12-09T05:05:18.469Z,96834.00
2022-12-09T05:07:55.096Z,96826.00
2022-12-09T05:10:30.273Z,96822.00
2022-12-09T05:13:05.488Z,96829.00
2022-12-09T05:15:40.836Z,96826.00
2022-12-09T05:18:16.227Z,96821.00
2022-12-09T05:20:51.316Z,96823.00
2022-12-09T05:23:26.582Z,96821.00
2022-12-09T05:26:07.644Z,96817.00
2022-12-09T05:28:43.011Z,96828.00
2022-12-09T05:31:22.099Z,96812.00
2022-12-09T05:33:59.187Z,96818.00
2022-12-09T05:36:34.359Z,96817.00
2022-12-09T05:39:10.531Z,96819.00
2022-12-09T05:41:47.317Z,96803.00
2022-12-09T05:44:22.699Z,96814.00
2022-12-09T05:46:58.274Z,96807.00
2022-12-09T05:49:33.517Z,96806.00
2022-12-09T05:52:10.475Z,96795.00
2022-12-09T05:54:45.501Z,96802.00
2022-12-09T05:57:21.342Z,96798.00
2022-12-09T05:59:56.393Z,96791.00
2022-12-09T06:02:31.404Z,96797.00
2022-12-09T06:05:07.809Z,96793.00
2022-12-09T06:07:43.168Z,96795.00
2022-12-09T06:10:18.928Z,96794.00
2022-12-09T06:12:55.452Z,96791.00
2022-12-09T06:15:33.500Z,96794.00
2022-12-09T06:18:08.995Z,96786.00
2022-12-09T06:20:44.360Z,96775.00
2022-12-09T06:23:19.560Z,96776.00
2022-12-09T06:25:54.408Z,96763.00
2022-12-09T06:28:30.179Z,96780.00
2022-12-09T06:31:05.772Z,96775.00
2022-12-09T06:33:58.453Z,96771.00
2022-12-09T06:36:33.897Z,96773.00
2022-12-09T06:39:11.137Z,96765.00
2022-12-09T06:41:46.241Z,96781.00
2022-12-09T06:44:23.717Z,96778.00
2022-12-09T06:47:00.382Z,96767.00
2022-12-09T06:49:36.008Z,96780.00
2022-12-09T06:52:11.141Z,96792.00
2022-12-09T06:54:46.247Z,96774.00
2022-12-09T06:57:21.222Z,96778.00
2022-12-09T06:59:56.227Z,96778.00
2022-12-09T07:02:36.111Z,96782.00
2022-12-09T07:05:13.049Z,96782.00
2022-12-09T07:07:53.071Z,96784.00
2022-12-09T07:10:28.394Z,96775.00
2022-12-09T07:13:03.702Z,96785.00
2022-12-09T07:15:38.706Z,96780.00
2022-12-09T07:18:13.805Z,96773.00
2022-12-09T07:20:48.895Z,96777.00
2022-12-09T07:23:24.287Z,96773.00
2022-12-09T07:26:02.354Z,96761.00
2022-12-09T07:28:42.575Z,96771.00
2022-12-09T07:31:29.395Z,96778.00
2022-12-09T07:34:05.165Z,96766.00
2022-12-09T07:36:40.679Z,96766.00
2022-12-09T07:39:19.193Z,96767.00
2022-12-09T07:41:57.021Z,96762.00
2022-12-09T07:44:37.070Z,96759.00
2022-12-09T07:47:12.409Z,96760.00
2022-12-09T07:49:49.200Z,96761.00
2022-12-09T07:52:24.743Z,96767.00
2022-12-09T07:55:01.575Z,96766.00
2022-12-09T07:57:38.725Z,96760.00
2022-12-09T08:00:14.766Z,96761.00
2022-12-09T08:02:52.362Z,96756.00
2022-12-09T08:05:27.548Z,96757.00
2022-12-09T08:08:03.191Z,96760.00
2022-12-09T08:10:38.474Z,96764.00
2022-12-09T08:13:13.484Z,96753.00
2022-12-09T08:15:48.807Z,96756.00
2022-12-09T08:18:23.935Z,96762.00
2022-12-09T08:21:00.408Z,96752.00
2022-12-09T08:23:36.372Z,96753.00
2022-12-09T08:26:13.846Z,96747.00
2022-12-09T08:28:49.579Z,96745.00
2022-12-09T08:31:26.613Z,96754.00
2022-12-09T08:34:05.415Z,96734.00
2022-12-09T08:36:41.045Z,96746.00
2022-12-09T08:39:16.318Z,96729.00
2022-12-09T08:41:51.241Z,96721.00
2022-12-09T08:44:26.553Z,96730.00
2022-12-09T08:47:01.907Z,96728.00
2022-12-09T08:49:37.460Z,96734.00
2022-12-09T08:52:12.797Z,96732.00
2022-12-09T08:54:48.161Z,96724.00
2022-12-09T08:57:24.897Z,96722.00
2022-12-09T08:59:59.914Z,96727.00
2022-12-09T09:02:35.317Z,96721.00
2022-12-09T09:05:10.565Z,96713.00
2022-12-09T09:07:45.849Z,96729.00
2022-12-09T09:10:20.955Z,96726.00
2022-12-09T09:12:56.306Z,96717.00
2022-12-09T09:15:31.518Z,96721.00
2022-12-09T09:18:07.078Z,96723.00
2022-12-09T09:20:50.420Z,96718.00
2022-12-09T09:23:26.217Z,96718.00
2022-12-09T09:26:02.574Z,96715.00
2022-12-09T09:28:37.929Z,96714.00
2022-12-09T09:31:16.811Z,96720.00
2022-12-09T09:33:52.964Z,96722.00
2022-12-09T09:36:28.381Z,96722.00
2022-12-09T09:39:03.698Z,96715.00
2022-12-09T09:42:08.673Z,96722.00
2022-12-09T09:44:49.300Z,96711.00
2022-12-09T09:47:40.250Z,96712.00
2022-12-09T09:51:07.357Z,96716.00
2022-12-09T09:53:42.454Z,96699.00
2022-12-09T09:56:31.974Z,96699.00
2022-12-09T09:59:48.483Z,96697.00
2022-12-09T10:02:37.752Z,96693.00
2022-12-09T10:05:28.592Z,96695.00
2022-12-09T10:08:44.561Z,96701.00
2022-12-09T10:11:29.867Z,96682.00
2022-12-09T10:14:23.416Z,96674.00
2022-12-09T10:17:57.127Z,96686.00
2022-12-09T10:20:33.147Z,96677.00
2022-12-09T10:23:14.877Z,96669.00
2022-12-09T10:25:58.364Z,96671.00
2022-12-09T10:28:40.522Z,96673.00
2022-12-09T10:31:16.573Z,96678.00
2022-12-09T10:33:51.650Z,96686.00
2022-12-09T10:36:35.204Z,96677.00
2022-12-09T10:39:20.400Z,96677.00
2022-12-09T10:42:16.141Z,96681.00
2022-12-09T10:45:04.622Z,96666.00
2022-12-09T10:47:40.271Z,96654.00
2022-12-09T10:50:35.732Z,96651.00
2022-12-09T10:53:15.983Z,96654.00
2022-12-09T10:55:53.928Z,96646.00
2022-12-09T10:58:31.869Z,96647.00
2022-12-09T11:01:11.966Z,96644.00
2022-12-09T11:03:56.197Z,96646.00
2022-12-09T11:06:40.750Z,96652.00
2022-12-09T11:09:28.864Z,96663.00
2022-12-09T11:12:07.945Z,96650.00
2022-12-09T11:15:26.395Z,96644.00
2022-12-09T11:18:32.259Z,96640.00
2022-12-09T11:21:30.812Z,96642.00
2022-12-09T11:24:21.581Z,96650.00
2022-12-09T11:26:58.058Z,96641.00
2022-12-09T11:29:34.413Z,96637.00
2022-12-09T11:32:14.444Z,96640.00
2022-12-09T11:34:50.105Z,96631.00
2022-12-09T11:37:25.332Z,96625.00
2022-12-09T11:40:00.176Z,96621.00
2022-12-09T11:42:35.095Z,96606.00
2022-12-09T11:45:22.693Z,96609.00
2022-12-09T11:48:36.204Z,96613.00
2022-12-09T11:51:39.635Z,96603.00
2022-12-09T11:54:27.447Z,96602.00
2022-12-09T11:57:05.301Z,96606.00
2022-12-09T11:59:51.893Z,96615.00
2022-12-09T12:02:37.825Z,96610.00
2022-12-09T12:05:26.802Z,96604.00
2022-12-09T12:08:17.469Z,96595.00
2022-12-09T12:11:03.475Z,96596.00
2022-12-09T12:13:57.788Z,96597.00
2022-12-09T12:17:17.545Z,96603.00
2022-12-09T12:19:56.307Z,96608.00
2022-12-09T12:22:56.617Z,96597.00
2022-12-09T12:26:01.120Z,96583.00
2022-12-09T12:29:36.636Z,96587.00
2022-12-09T12:37:06.700Z,96585.00
2022-12-09T12:40:23.449Z,96585.00
2022-12-09T12:43:48.252Z,96569.00
2022-12-09T12:46:47.961Z,96576.00
2022-12-09T12:49:54.189Z,96589.00
2022-12-09T12:53:15.784Z,96595.00
2022-12-09T12:56:03.253Z,96600.00
2022-12-09T12:59:04.363Z,96584.00
2022-12-09T13:01:55.198Z,96581.00
2022-12-09T13:04:52.856Z,96583.00
2022-12-09T13:07:50.938Z,96593.00
2022-12-09T13:10:41.483Z,96588.00
2022-12-09T13:13:39.909Z,96592.00
2022-12-09T13:16:21.404Z,96600.00
2022-12-09T13:19:16.409Z,96598.00
2022-12-09T13:21:52.602Z,96605.00
2022-12-09T13:24:43.189Z,96607.00
2022-12-09T13:27:42.917Z,96609.00
2022-12-09T13:30:23.335Z,96605.00
2022-12-09T13:33:28.622Z,96605.00
2022-12-09T13:36:45.529Z,96606.00
2022-12-09T13:39:40.286Z,96601.00
2022-12-09T13:42:46.563Z,96615.00
2022-12-09T13:45:43.062Z,96607.00
2022-12-09T13:48:17.940Z,96601.00
2022-12-09T13:50:55.917Z,96610.00
2022-12-09T13:53:45.819Z,96608.00
2022-12-09T13:56:26.961Z,96607.00
2022-12-09T13:59:41.236Z,96610.00
2022-12-09T14:02:44.025Z,96612.00
2022-12-09T14:05:26.212Z,96608.00
2022-12-09T14:08:25.848Z,96607.00
2022-12-09T14:12:06.372Z,96609.00
2022-12-09T14:14:44.231Z,96616.00
2022-12-09T14:17:24.917Z,96620.00
2022-12-09T14:20:22.150Z,96612.00
2022-12-09T14:23:11.811Z,96608.00
2022-12-09T14:26:00.443Z,96611.00
2022-12-09T14:28:41.602Z,96605.00
2022-12-09T14:31:44.164Z,96616.00
2022-12-09T14:34:34.867Z,96624.00
2022-12-09T14:37:18.547Z,96617.00
2022-12-09T14:40:18.341Z,96620.00
2022-12-09T14:43:05.360Z,96619.00
2022-12-09T14:46:02.811Z,96621.00
2022-12-09T14:48:40.579Z,96629.00
2022-12-09T14:51:44.476Z,96635.00
2022-12-09T14:54:50.978Z,96638.00
2022-12-09T14:57:43.992Z,96643.00
2022-12-09T15:00:38.153Z,96640.00
2022-12-09T15:03:35.537Z,96646.00
2022-12-09T15:06:19.447Z,96656.00
2022-12-09T15:08:58.972Z,96658.00
2022-12-09T15:11:35.707Z,96651.00
2022-12-09T15:14:28.595Z,96656.00
2022-12-09T15:17:03.902Z,96651.00
2022-12-09T15:22:34.449Z,96646.00
2022-12-09T15:25:18.424Z,96651.00
2022-12-09T15:28:03.201Z,96658.00
2022-12-09T15:30:38.838Z,96670.00
2022-12-09T15:33:19.902Z,96664.00
2022-12-09T15:36:05.085Z,96661.00
2022-12-09T15:39:06.701Z,96672.00
2022-12-09T15:42:06.611Z,96656.00
2022-12-09T15:45:13.149Z,96671.00
2022-12-09T15:48:15.136Z,96672.00
2022-12-09T15:51:04.708Z,96676.00
2022-12-09T15:54:00.283Z,96672.00
2022-12-09T15:56:44.901Z,96676.00
2022-12-09T15:59:36.514Z,96679.00
2022-12-09T16:02:22.301Z,96683.00
2022-12-09T16:05:03.067Z,96676.00
2022-12-09T16:07:38.202Z,96695.00
2022-12-09T16:10:16.646Z,96685.00
2022-12-09T16:13:13.140Z,96684.00
2022-12-09T16:15:53.798Z,96676.00
2022-12-09T16:18:46.353Z,96668.00
2022-12-09T16:21:29.642Z,96670.00
2022-12-09T16:24:12.934Z,96677.00
2022-12-09T16:26:50.763Z,96683.00
2022-12-09T16:29:35.388Z,96680.00
2022-12-09T16:32:15.960Z,96685.00
2022-12-09T16:34:57.201Z,96682.00
2022-12-09T16:37:42.511Z,96677.00
2022-12-09T16:40:26.486Z,96687.00
2022-12-09T16:43:17.131Z,96680.00
2022-12-09T16:45:57.839Z,96670.00
2022-12-09T16:48:32.742Z,96681.00
2022-12-09T16:51:17.568Z,96684.00
2022-12-09T16:53:54.296Z,96685.00
2022-12-09T16:56:31.774Z,96687.00
2022-12-09T16:59:06.688Z,96687.00
2022-12-09T17:01:42.306Z,96691.00
2022-12-09T17:04:23.726Z,96683.00
2022-12-09T17:06:58.598Z,96692.00
2022-12-09T17:09:33.453Z,96689.00
2022-12-09T17:12:08.749Z,96690.00
2022-12-09T17:14:43.850Z,96692.00
2022-12-09T17:17:18.859Z,96698.00
2022-12-09T17:19:53.743Z,96694.00
2022-12-09T17:22:28.610Z,96692.00
2022-12-09T17:25:04.260Z,96690.00
2022-12-09T17:27:39.688Z,96697.00
2022-12-09T17:30:14.667Z,96697.00
2022-12-09T17:32:49.523Z,96704.00
2022-12-09T17:35:24.345Z,96697.00
2022-12-09T17:37:59.188Z,96694.00
2022-12-09T17:40:37.780Z,96694.00
2022-12-09T17:43:12.931Z,96699.00
2022-12-09T17:45:47.868Z,96705.00
2022-12-09T17:48:22.886Z,96703.00
2022-12-09T17:50:58.083Z,96697.00
2022-12-09T17:53:38.231Z,96702.00
2022-12-09T17:56:17.578Z,96694.00
2022-12-09T17:59:09.140Z,96703.00
2022-12-09T18:01:46.235Z,96709.00
2022-12-09T18:04:21.242Z,96708.00
2022-12-09T18:06:56.205Z,96704.00
2022-12-09T18:09:31.052Z,96711.00
2022-12-09T18:12:06.197Z,96706.00
2022-12-09T18:14:41.109Z,96710.00
2022-12-09T18:17:16.359Z,96707.00
2022-12-09T18:19:51.311Z,96714.00
2022-12-09T18:22:26.185Z,96715.00
2022-12-09T18:25:01.227Z,96724.00
2022-12-09T18:27:36.114Z,96726.00
2022-12-09T18:30:11.631Z,96730.00
2022-12-09T18:32:46.504Z,96728.00
2022-12-09T18:35:21.457Z,96743.00
2022-12-09T18:38:06.020Z,96742.00
2022-12-09T18:41:04.049Z,96746.00
2022-12-09T18:43:42.250Z,96747.00
2022-12-09T18:46:26.276Z,96744.00
2022-12-09T18:49:12.244Z,96752.00
2022-12-09T18:51:49.382Z,96757.00
2022-12-09T18:54:29.229Z,96741.00
2022-12-09T18:57:04.292Z,96748.00
2022-12-09T18:59:39.177Z,96748.00
2022-12-09T19:02:14.691Z,96752.00
2022-12-09T19:04:49.656Z,96743.00
2022-12-09T19:07:29.085Z,96746.00
2022-12-09T19:10:07.406Z,96747.00
2022-12-09T19:12:47.721Z,96749.00
2022-12-09T19:15:24.449Z,96747.00
2022-12-09T19:17:59.315Z,96743.00
2022-12-09T19:20:34.388Z,96741.00
2022-12-09T19:23:09.244Z,96747.00
2022-12-09T19:25:44.146Z,96754.00
2022-12-09T19:28:18.994Z,96743.00
2022-12-09T19:30:53.849Z,96742.00
2022-12-09T19:33:28.783Z,96749.00
2022-12-09T19:36:04.385Z,96746.00
2022-12-09T19:38:40.235Z,96759.00
2022-12-09T19:41:15.168Z,96755.00
2022-12-09T19:43:58.732Z,96758.00
2022-12-09T19:46:34.587Z,96752.00
2022-12-09T19:49:13.853Z,96755.00
2022-12-09T19:51:49.729Z,96765.00
2022-12-09T19:54:28.689Z,96769.00
2022-12-09T19:57:03.831Z,96771.00
2022-12-09T19:59:38.679Z,96774.00
2022-12-09T20:02:14.927Z,96777.00
2022-12-09T20:04:50.830Z,96785.00
2022-12-09T20:07:26.080Z,96782.00
2022-12-09T20:10:01.008Z,96785.00
2022-12-09T20:12:38.211Z,96785.00
2022-12-09T20:15:13.389Z,96782.00
2022-12-09T20:17:48.422Z,96774.00
2022-12-09T20:20:23.378Z,96780.00
2022-12-09T20:22:58.249Z,96777.00
2022-12-09T20:25:35.040Z,96780.00
2022-12-09T20:28:10.162Z,96788.00
2022-12-09T20:30:45.210Z,96782.00
2022-12-09T20:33:20.043Z,96784.00
2022-12-09T20:35:55.011Z,96786.00
2022-12-09T20:38:30.891Z,96779.00
2022-12-09T20:41:10.975Z,96786.00
2022-12-09T20:43:48.408Z,96797.00
2022-12-09T20:46:32.214Z,96788.00
2022-12-09T20:49:07.700Z,96796.00
2022-12-09T20:51:45.260Z,96793.00
2022-12-09T20:54:20.225Z,96801.00
2022-12-09T20:56:55.194Z,96793.00
2022-12-09T20:59:30.080Z,96795.00
2022-12-09T21:02:09.456Z,96789.00
2022-12-09T21:04:47.197Z,96802.00
2022-12-09T21:07:22.081Z,96789.00
2022-12-09T21:09:57.012Z,96797.00
2022-12-09T21:12:31.861Z,96794.00
2022-12-09T21:15:07.159Z,96794.00
2022-12-09T21:17:42.193Z,96782.00
2022-12-09T21:20:18.088Z,96795.00
2022-12-09T21:23:10.798Z,96786.00
2022-12-09T21:25:47.737Z,96784.00
2022-12-09T21:28:22.564Z,96787.00
2022-12-09T21:30:57.503Z,96787.00
2022-12-09T21:33:32.320Z,96788.00
2022-12-09T21:36:15.123Z,96793.00
2022-12-09T21:38:50.167Z,96792.00
2022-12-09T21:41:28.602Z,96782.00
2022-12-09T21:44:06.652Z,96792.00
2022-12-09T21:46:42.279Z,96789.00
2022-12-09T21:49:17.235Z,96792.00
2022-12-09T21:51:52.474Z,96799.00
2022-12-09T21:54:27.400Z,96795.00
2022-12-09T21:57:02.260Z,96810.00
2022-12-09T21:59:37.702Z,96803.00
2022-12-09T22:02:13.456Z,96816.00
2022-12-09T22:04:48.423Z,96807.00
2022-12-09T22:07:23.254Z,96824.00
2022-12-09T22:09:58.189Z,96815.00
2022-12-09T22:12:33.032Z,96816.00
2022-12-09T22:15:10.541Z,96826.00
2022-12-09T22:17:45.568Z,96823.00
2022-12-09T22:21:00.540Z,96828.00
2022-12-09T22:23:15.253Z,96827.00
2022-12-09T22:25:50.099Z,96827.00
2022-12-09T22:28:25.963Z,96823.00
2022-12-09T22:31:01.877Z,96828.00
2022-12-09T22:33:37.020Z,96832.00
2022-12-09T22:36:12.825Z,96833.00
2022-12-09T22:38:48.305Z,96827.00
2022-12-09T22:41:26.669Z,96835.00
2022-12-09T22:44:02.508Z,96838.00
2022-12-09T22:46:37.434Z,96836.00
2022-12-09T22:49:15.060Z,96836.00
2022-12-09T22:51:50.036Z,96834.00
2022-12-09T22:54:24.983Z,96841.00
2022-12-09T22:56:59.868Z,96843.00
2022-12-09T22:59:38.450Z,96836.00
2022-12-09T23:02:17.743Z,96839.00
2022-12-09T23:04:52.702Z,96833.00
2022-12-09T23:07:27.546Z,96841.00
2022-12-09T23:10:02.755Z,96841.00
2022-12-09T23:12:37.649Z,96835.00
2022-12-09T23:15:12.541Z,96835.00
2022-12-09T23:17:47.400Z,96843.00
2022-12-09T23:20:22.546Z,96836.00
2022-12-09T23:22:57.435Z,96842.00
2022-12-09T23:25:33.718Z,96837.00
2022-12-09T23:28:08.664Z,96840.00
2022-12-09T23:30:43.740Z,96836.00
2022-12-09T23:33:18.649Z,96834.00
2022-12-09T23:35:53.473Z,96828.00
2022-12-09T23:38:28.296Z,96830.00
2022-12-09T23:41:04.202Z,96834.00
2022-12-09T23:43:39.507Z,96834.00
2022-12-09T23:46:19.881Z,96832.00
2022-12-09T23:48:56.507Z,96828.00
2022-12-09T23:51:34.096Z,96836.00
2022-12-09T23:54:11.008Z,96834.00
2022-12-09T23:56:52.534Z,96830.00
2022-12-09T23:59:27.378Z,96836.00
